createdAt,value
2022-10-28T00:00:06.800Z,1.73
2022-10-28T00:02:33.326Z,1.50
2022-10-28T00:04:59.702Z,1.30
2022-10-28T00:07:27.874Z,1.42
2022-10-28T00:09:54.218Z,1.20
2022-10-28T00:12:20.513Z,1.40
2022-10-28T00:14:46.888Z,1.42
2022-10-28T00:17:13.293Z,1.30
2022-10-28T00:19:39.624Z,2.08
2022-10-28T00:22:05.921Z,1.60
2022-10-28T00:24:32.285Z,1.30
2022-10-28T00:26:58.648Z,1.77
2022-10-28T00:29:25.108Z,1.63
2022-10-28T00:31:54.395Z,1.58
2022-10-28T00:34:23.538Z,1.63
2022-10-28T00:36:49.915Z,1.42
2022-10-28T00:39:17.490Z,1.80
2022-10-28T00:41:45.409Z,1.60
2022-10-28T00:44:30.353Z,1.52
2022-10-28T00:46:56.742Z,1.25
2022-10-28T00:49:27.263Z,1.55
2022-10-28T00:51:56.001Z,1.60
2022-10-28T00:54:23.170Z,1.67
2022-10-28T00:56:51.648Z,1.60
2022-10-28T00:59:32.990Z,1.70
2022-10-28T01:01:59.574Z,1.60
2022-10-28T01:04:26.061Z,1.40
2022-10-28T01:06:52.624Z,1.33
2022-10-28T01:09:19.097Z,1.38
2022-10-28T01:11:53.109Z,1.50
2022-10-28T01:14:25.393Z,1.55
2022-10-28T01:16:51.703Z,1.63
2022-10-28T01:19:31.822Z,1.38
2022-10-28T01:22:17.250Z,1.70
2022-10-28T01:24:43.558Z,1.67
2022-10-28T01:27:15.711Z,1.50
2022-10-28T01:30:00.991Z,1.90
2022-10-28T01:32:27.343Z,1.60
2022-10-28T01:35:02.959Z,1.42
2022-10-28T01:37:36.048Z,1.40
2022-10-28T01:40:11.217Z,1.45
2022-10-28T01:42:42.139Z,1.42
2022-10-28T01:45:15.546Z,1.40
2022-10-28T01:47:50.778Z,1.55
2022-10-28T01:50:23.575Z,1.48
2022-10-28T01:52:54.543Z,1.65
2022-10-28T01:55:26.856Z,1.55
2022-10-28T01:57:55.007Z,1.30
2022-10-28T02:00:21.484Z,1.40
2022-10-28T02:02:49.276Z,1.60
2022-10-28T02:05:34.441Z,1.30
2022-10-28T02:08:03.725Z,1.52
2022-10-28T02:10:34.136Z,1.52
2022-10-28T02:13:03.014Z,1.65
2022-10-28T02:15:32.149Z,1.40
2022-10-28T02:18:01.513Z,1.60
2022-10-28T02:20:51.196Z,1.70
2022-10-28T02:23:21.742Z,1.50
2022-10-28T02:26:04.758Z,1.70
2022-10-28T02:28:40.402Z,1.65
2022-10-28T02:43:20.134Z,1.98
2022-10-28T02:45:48.659Z,1.55
2022-10-28T02:48:19.387Z,1.80
2022-10-28T02:50:48.387Z,1.75
2022-10-28T02:53:20.665Z,1.98
2022-10-28T02:55:54.929Z,1.80
2022-10-28T02:58:21.512Z,1.95
2022-10-28T03:00:49.614Z,1.88
2022-10-28T03:03:16.006Z,2.22
2022-10-28T03:05:42.384Z,1.63
2022-10-28T03:08:08.732Z,1.73
2022-10-28T03:10:35.090Z,1.88
2022-10-28T03:13:01.436Z,2.17
2022-10-28T03:15:27.737Z,1.70
2022-10-28T03:17:54.302Z,1.83
2022-10-28T03:20:20.968Z,2.22
2022-10-28T03:22:47.266Z,1.95
2022-10-28T03:25:13.614Z,1.77
2022-10-28T03:27:40.930Z,2.00
2022-10-28T03:30:07.455Z,2.38
2022-10-28T03:32:33.787Z,2.15
2022-10-28T03:35:00.097Z,2.30
2022-10-28T03:37:26.573Z,2.40
2022-10-28T03:39:52.890Z,2.13
2022-10-28T03:42:19.343Z,2.55
2022-10-28T03:44:45.657Z,2.35
2022-10-28T03:47:11.973Z,2.40
2022-10-28T03:49:38.325Z,2.22
2022-10-28T03:52:04.792Z,1.95
2022-10-28T03:54:31.089Z,2.38
2022-10-28T03:56:57.458Z,1.92
2022-10-28T03:59:23.782Z,2.47
2022-10-28T04:01:50.285Z,2.00
2022-10-28T04:04:16.731Z,2.50
2022-10-28T04:06:43.044Z,2.22
2022-10-28T04:09:09.379Z,2.33
2022-10-28T04:11:35.752Z,2.38
2022-10-28T04:14:02.068Z,2.50
2022-10-28T04:16:28.375Z,2.65
2022-10-28T04:18:54.723Z,2.63
2022-10-28T04:21:21.042Z,2.55
2022-10-28T04:23:47.361Z,2.60
2022-10-28T04:26:14.263Z,2.90
2022-10-28T04:28:40.882Z,2.65
2022-10-28T04:31:07.313Z,2.35
2022-10-28T04:33:33.606Z,2.95
2022-10-28T04:36:00.093Z,3.38
2022-10-28T04:38:26.457Z,3.08
2022-10-28T04:40:52.912Z,2.70
2022-10-28T04:43:19.267Z,2.75
2022-10-28T04:45:46.329Z,2.80
2022-10-28T04:48:13.002Z,2.40
2022-10-28T04:50:39.358Z,2.75
2022-10-28T04:53:05.699Z,2.33
2022-10-28T04:55:32.019Z,2.78
2022-10-28T04:57:59.500Z,2.70
2022-10-28T05:00:26.615Z,2.28
2022-10-28T05:02:53.467Z,2.53
2022-10-28T05:05:20.291Z,2.58
2022-10-28T05:07:46.705Z,2.70
2022-10-28T05:10:15.480Z,2.47
2022-10-28T05:12:42.978Z,2.65
2022-10-28T05:15:09.719Z,2.65
2022-10-28T05:17:36.054Z,2.55
2022-10-28T05:20:02.396Z,2.45
2022-10-28T05:22:28.744Z,2.67
2022-10-28T05:24:55.108Z,2.60
2022-10-28T05:27:21.672Z,3.08
2022-10-28T05:29:50.540Z,2.70
2022-10-28T05:32:16.854Z,3.30
2022-10-28T05:34:43.196Z,2.63
2022-10-28T05:37:09.575Z,2.90
2022-10-28T05:39:35.906Z,2.63
2022-10-28T05:42:02.279Z,2.60
2022-10-28T05:44:28.688Z,3.10
2022-10-28T05:46:55.717Z,2.83
2022-10-28T05:49:22.146Z,2.63
2022-10-28T05:51:48.488Z,2.83
2022-10-28T05:54:14.855Z,2.90
2022-10-28T05:56:41.170Z,2.60
2022-10-28T05:59:07.497Z,3.15
2022-10-28T06:01:34.081Z,3.17
2022-10-28T06:04:00.488Z,3.40
2022-10-28T06:06:28.106Z,3.08
2022-10-28T06:08:54.501Z,3.33
2022-10-28T06:11:19.273Z,3.50
2022-10-28T06:13:45.601Z,2.95
2022-10-28T06:16:11.963Z,3.20
2022-10-28T06:18:38.332Z,3.42
2022-10-28T06:21:05.027Z,3.70
2022-10-28T06:23:31.329Z,3.55
2022-10-28T06:25:58.831Z,3.83
2022-10-28T06:28:25.512Z,4.07
2022-10-28T06:30:51.818Z,4.82
2022-10-28T06:33:18.175Z,4.25
2022-10-28T06:35:44.570Z,4.18
2022-10-28T06:38:11.259Z,3.42
2022-10-28T06:40:37.645Z,3.78
2022-10-28T06:43:04.907Z,3.80
2022-10-28T06:45:31.893Z,2.92
2022-10-28T06:48:01.235Z,3.67
2022-10-28T06:50:28.221Z,3.33
2022-10-28T06:52:58.171Z,3.28
2022-10-28T06:55:24.989Z,3.45
2022-10-28T06:57:51.753Z,3.95
2022-10-28T07:00:18.763Z,3.28
2022-10-28T07:02:45.404Z,3.47
2022-10-28T07:05:11.971Z,3.03
2022-10-28T07:07:38.406Z,2.80
2022-10-28T07:10:05.401Z,3.35
2022-10-28T07:12:32.012Z,2.53
2022-10-28T07:14:58.364Z,2.63
2022-10-28T07:17:24.860Z,2.17
2022-10-28T07:19:51.282Z,2.30
2022-10-28T07:22:17.667Z,2.50
2022-10-28T07:24:44.016Z,2.40
2022-10-28T07:27:10.335Z,2.38
2022-10-28T07:29:36.692Z,2.13
2022-10-28T07:32:03.220Z,2.50
2022-10-28T07:34:29.593Z,2.45
2022-10-28T07:36:55.938Z,2.28
2022-10-28T07:39:22.468Z,2.40
2022-10-28T07:41:49.009Z,2.67
2022-10-28T07:44:15.355Z,2.38
2022-10-28T07:46:41.826Z,2.85
2022-10-28T07:49:08.375Z,2.38
2022-10-28T07:51:34.695Z,2.63
2022-10-28T07:54:01.054Z,2.63
2022-10-28T07:56:27.491Z,2.95
2022-10-28T07:58:53.815Z,2.55
2022-10-28T08:01:20.799Z,2.20
2022-10-28T08:03:49.918Z,2.88
2022-10-28T08:06:17.574Z,2.03
2022-10-28T08:08:44.699Z,2.45
2022-10-28T08:11:14.105Z,2.20
2022-10-28T08:13:40.567Z,2.50
2022-10-28T08:16:08.054Z,2.75
2022-10-28T08:18:35.055Z,2.10
2022-10-28T08:21:02.049Z,2.10
2022-10-28T08:23:28.892Z,2.10
2022-10-28T08:25:55.206Z,2.10
2022-10-28T08:28:21.897Z,2.05
2022-10-28T08:30:57.093Z,2.28
2022-10-28T08:33:34.619Z,1.98
2022-10-28T08:36:01.001Z,2.10
2022-10-28T08:38:27.381Z,2.30
2022-10-28T08:40:53.697Z,1.83
2022-10-28T08:43:46.168Z,2.17
2022-10-28T08:46:24.651Z,2.65
2022-10-28T08:48:51.058Z,2.17
2022-10-28T08:51:20.988Z,1.85
2022-10-28T08:54:03.070Z,1.60
2022-10-28T08:56:37.828Z,1.95
2022-10-28T08:59:06.382Z,2.07
2022-10-28T09:01:42.205Z,2.80
2022-10-28T09:04:32.138Z,2.00
2022-10-28T09:06:58.532Z,2.00
2022-10-28T09:09:24.941Z,2.20
2022-10-28T09:11:56.449Z,2.10
2022-10-28T09:14:28.717Z,2.33
2022-10-28T09:17:03.576Z,2.50
2022-10-28T09:19:35.974Z,2.38
2022-10-28T09:22:08.777Z,2.10
2022-10-28T09:24:56.018Z,1.90
2022-10-28T09:27:28.530Z,2.08
2022-10-28T09:29:54.844Z,2.00
2022-10-28T09:32:40.314Z,2.40
2022-10-28T09:35:10.486Z,2.28
2022-10-28T09:37:38.946Z,2.13
2022-10-28T09:40:14.442Z,2.42
2022-10-28T09:42:46.130Z,2.67
2022-10-28T09:45:15.540Z,2.80
2022-10-28T09:47:44.291Z,2.50
2022-10-28T09:50:30.075Z,2.20
2022-10-28T09:53:03.605Z,2.20
2022-10-28T09:55:30.371Z,2.17
2022-10-28T09:57:57.085Z,2.25
2022-10-28T10:00:23.630Z,2.10
2022-10-28T10:02:51.830Z,2.05
2022-10-28T10:05:18.662Z,2.20
2022-10-28T10:07:53.737Z,2.58
2022-10-28T10:10:25.241Z,2.03
2022-10-28T10:12:53.449Z,1.83
2022-10-28T10:15:26.221Z,2.50
2022-10-28T10:17:52.868Z,2.08
2022-10-28T10:20:23.470Z,1.80
2022-10-28T10:22:52.429Z,2.30
2022-10-28T10:25:19.035Z,1.73
2022-10-28T10:28:00.680Z,2.08
2022-10-28T10:30:38.069Z,2.08
2022-10-28T10:33:05.612Z,2.70
2022-10-28T10:35:32.910Z,2.65
2022-10-28T10:38:01.111Z,2.25
2022-10-28T10:40:49.175Z,1.83
2022-10-28T10:43:18.283Z,1.90
2022-10-28T10:46:14.971Z,2.35
2022-10-28T10:48:41.892Z,2.13
2022-10-28T10:51:09.478Z,2.28
2022-10-28T10:53:36.518Z,1.88
2022-10-28T10:56:04.861Z,2.00
2022-10-28T10:58:32.717Z,2.08
2022-10-28T11:01:00.749Z,2.20
2022-10-28T11:03:45.994Z,2.28
2022-10-28T11:06:24.741Z,2.20
2022-10-28T11:08:55.278Z,2.25
2022-10-28T11:11:22.202Z,2.00
2022-10-28T11:13:49.451Z,2.40
2022-10-28T11:16:18.896Z,2.10
2022-10-28T11:18:46.734Z,2.45
2022-10-28T11:21:13.126Z,1.92
2022-10-28T11:23:57.985Z,1.98
2022-10-28T11:26:24.562Z,1.80
2022-10-28T11:29:02.732Z,1.63
2022-10-28T11:31:29.212Z,1.98
2022-10-28T11:34:14.335Z,2.13
2022-10-28T11:36:48.335Z,2.33
2022-10-28T11:39:25.889Z,2.03
2022-10-28T11:41:58.274Z,2.10
2022-10-28T11:44:43.153Z,2.10
2022-10-28T11:47:12.682Z,1.90
2022-10-28T11:49:51.287Z,2.33
2022-10-28T11:52:45.471Z,2.10
2022-10-28T11:55:14.788Z,2.22
2022-10-28T11:58:04.245Z,2.10
2022-10-28T12:00:49.213Z,1.80
2022-10-28T12:03:33.878Z,1.67
2022-10-28T12:06:19.272Z,2.20
2022-10-28T12:09:04.350Z,2.55
2022-10-28T12:11:33.714Z,2.10
2022-10-28T12:14:18.941Z,2.20
2022-10-28T12:16:52.319Z,2.20
2022-10-28T12:19:21.210Z,2.40
2022-10-28T12:22:06.503Z,2.00
2022-10-28T12:24:35.272Z,2.30
2022-10-28T12:27:05.721Z,2.60
2022-10-28T12:29:37.186Z,2.00
2022-10-28T12:32:05.645Z,2.60
2022-10-28T12:34:43.456Z,1.92
2022-10-28T12:37:13.050Z,1.98
2022-10-28T12:39:43.893Z,2.00
2022-10-28T12:42:13.404Z,2.05
2022-10-28T12:44:40.500Z,2.20
2022-10-28T12:47:14.185Z,1.75
2022-10-28T12:49:43.739Z,2.13
2022-10-28T12:52:26.909Z,1.80
2022-10-28T12:54:59.903Z,2.20
2022-10-28T12:57:27.638Z,1.98
2022-10-28T13:00:00.007Z,2.03
2022-10-28T13:02:35.428Z,2.03
2022-10-28T13:07:47.877Z,1.98
2022-10-28T13:13:09.461Z,1.85
2022-10-28T13:15:45.981Z,1.65
2022-10-28T13:18:31.064Z,1.95
2022-10-28T13:21:00.156Z,2.05
2022-10-28T13:23:45.328Z,2.53
2022-10-28T13:26:27.145Z,2.13
2022-10-28T13:28:56.155Z,2.28
2022-10-28T13:31:26.042Z,2.10
2022-10-28T13:33:54.752Z,1.65
2022-10-28T13:36:21.122Z,1.58
2022-10-28T13:38:52.010Z,2.00
2022-10-28T13:41:26.619Z,2.00
2022-10-28T13:43:54.385Z,2.65
2022-10-28T13:46:39.599Z,2.42
2022-10-28T13:49:22.363Z,2.23
2022-10-28T13:51:51.530Z,2.75
2022-10-28T13:54:23.948Z,1.98
2022-10-28T13:56:50.504Z,1.90
2022-10-28T13:59:23.790Z,2.17
2022-10-28T14:02:07.635Z,1.98
2022-10-28T14:04:41.426Z,1.90
2022-10-28T14:07:10.620Z,1.70
2022-10-28T14:09:37.373Z,2.13
2022-10-28T14:12:07.229Z,2.38
2022-10-28T14:14:33.636Z,2.55
2022-10-28T14:17:00.002Z,2.33
2022-10-28T14:19:26.405Z,2.30
2022-10-28T14:22:05.837Z,2.85
2022-10-28T14:24:35.221Z,2.80
2022-10-28T14:27:15.377Z,2.22
2022-10-28T14:29:48.956Z,2.30
2022-10-28T14:32:33.685Z,2.63
2022-10-28T14:35:13.008Z,2.47
2022-10-28T14:37:45.220Z,2.17
2022-10-28T14:40:22.459Z,2.08
2022-10-28T14:45:37.893Z,2.05
2022-10-28T14:48:04.235Z,2.58
2022-10-28T14:50:45.100Z,1.98
2022-10-28T14:53:17.370Z,2.38
2022-10-28T14:55:45.941Z,2.28
2022-10-28T14:58:18.304Z,1.92
2022-10-28T15:00:49.530Z,2.42
2022-10-28T15:03:15.870Z,1.90
2022-10-28T15:05:42.260Z,2.15
2022-10-28T15:08:10.066Z,2.90
2022-10-28T15:10:38.351Z,1.90
2022-10-28T15:13:06.882Z,2.25
2022-10-28T15:15:36.982Z,2.25
2022-10-28T15:18:19.906Z,2.38
2022-10-28T15:20:46.370Z,2.25
2022-10-28T15:23:22.802Z,2.42
2022-10-28T15:26:09.791Z,2.63
2022-10-28T15:28:36.643Z,2.20
2022-10-28T15:31:03.056Z,2.00
2022-10-28T15:33:31.119Z,2.35
2022-10-28T15:36:10.717Z,3.70
2022-10-28T15:38:41.093Z,6.18
2022-10-28T15:41:22.792Z,4.63
2022-10-28T15:43:55.728Z,6.13
2022-10-28T15:46:23.752Z,3.90
2022-10-28T15:48:53.823Z,1.90
2022-10-28T15:51:21.101Z,1.75
2022-10-28T15:53:48.541Z,1.85
2022-10-28T15:56:14.837Z,2.13
2022-10-28T15:58:42.746Z,1.70
2022-10-28T16:01:30.010Z,2.03
2022-10-28T16:03:56.915Z,2.00
2022-10-28T16:06:26.287Z,1.45
2022-10-28T16:09:05.209Z,1.25
2022-10-28T16:11:33.469Z,1.70
2022-10-28T16:14:03.482Z,1.40
2022-10-28T16:16:30.696Z,1.30
2022-10-28T16:19:08.541Z,1.70
2022-10-28T16:21:36.010Z,1.50
2022-10-28T16:24:02.541Z,1.50
2022-10-28T16:26:30.410Z,1.50
2022-10-28T16:28:56.849Z,1.42
2022-10-28T16:31:24.640Z,1.48
2022-10-28T16:33:51.403Z,1.55
2022-10-28T16:36:17.782Z,1.40
2022-10-28T16:38:44.108Z,1.70
2022-10-28T16:41:14.133Z,1.58
2022-10-28T16:43:40.492Z,1.60
2022-10-28T16:46:06.841Z,1.27
2022-10-28T16:48:33.213Z,1.73
2022-10-28T16:51:01.374Z,1.70
2022-10-28T16:53:27.816Z,1.65
2022-10-28T16:55:58.919Z,1.92
2022-10-28T16:58:26.958Z,1.70
2022-10-28T17:00:53.590Z,2.30
2022-10-28T17:03:20.042Z,1.63
2022-10-28T17:05:46.410Z,2.20
2022-10-28T17:08:12.751Z,2.03
2022-10-28T17:10:42.585Z,2.13
2022-10-28T17:13:15.511Z,1.90
2022-10-28T17:15:42.463Z,1.70
2022-10-28T17:18:10.224Z,2.25
2022-10-28T17:20:36.759Z,1.90
2022-10-28T17:23:03.988Z,1.70
2022-10-28T17:25:30.472Z,2.45
2022-10-28T17:27:57.684Z,2.33
2022-10-28T17:30:24.333Z,1.90
2022-10-28T17:32:51.974Z,2.10
2022-10-28T17:35:19.530Z,1.52
2022-10-28T17:37:45.900Z,1.80
2022-10-28T17:40:12.670Z,1.70
2022-10-28T17:42:39.091Z,1.70
2022-10-28T17:45:05.999Z,2.05
2022-10-28T17:47:33.333Z,1.98
2022-10-28T17:50:00.257Z,1.63
2022-10-28T17:52:27.129Z,1.75
2022-10-28T17:54:53.516Z,1.92
2022-10-28T17:57:20.209Z,1.70
2022-10-28T17:59:46.872Z,1.85
2022-10-28T18:02:14.471Z,2.00
2022-10-28T18:04:41.305Z,1.85
2022-10-28T18:07:07.687Z,2.00
2022-10-28T18:09:34.105Z,2.00
2022-10-28T18:12:03.466Z,1.83
2022-10-28T18:14:30.147Z,2.00
2022-10-28T18:16:56.811Z,1.73
2022-10-28T18:19:23.193Z,2.00
2022-10-28T18:21:49.618Z,1.90
2022-10-28T18:24:16.004Z,1.67
2022-10-28T18:26:42.328Z,2.10
2022-10-28T18:29:10.124Z,2.38
2022-10-28T18:31:37.347Z,1.98
2022-10-28T18:34:04.231Z,1.92
2022-10-28T18:36:34.313Z,1.80
2022-10-28T18:39:01.055Z,2.05
2022-10-28T18:41:28.561Z,1.90
2022-10-28T18:43:55.653Z,1.92
2022-10-28T18:46:22.483Z,2.22
2022-10-28T18:48:48.927Z,1.83
2022-10-28T18:51:15.628Z,2.13
2022-10-28T18:53:45.918Z,2.28
2022-10-28T18:56:13.592Z,1.70
2022-10-28T18:58:40.323Z,2.03
2022-10-28T19:01:08.115Z,2.25
2022-10-28T19:03:34.729Z,2.20
2022-10-28T19:06:08.359Z,1.85
2022-10-28T19:08:35.049Z,2.25
2022-10-28T19:11:02.117Z,1.73
2022-10-28T19:13:28.500Z,2.35
2022-10-28T19:15:54.990Z,2.22
2022-10-28T19:18:21.877Z,1.92
2022-10-28T19:20:48.335Z,1.92
2022-10-28T19:23:14.714Z,2.17
2022-10-28T19:25:41.035Z,1.73
2022-10-28T19:28:07.379Z,1.50
2022-10-28T19:30:34.620Z,1.95
2022-10-28T19:33:01.011Z,2.50
2022-10-28T19:35:27.373Z,1.98
2022-10-28T19:37:53.777Z,2.28
2022-10-28T19:40:20.345Z,1.75
2022-10-28T19:42:46.770Z,2.10
2022-10-28T19:45:13.140Z,2.10
2022-10-28T19:47:39.537Z,2.08
2022-10-28T19:50:06.118Z,2.30
2022-10-28T19:52:32.443Z,1.75
2022-10-28T19:54:58.746Z,2.53
2022-10-28T19:57:25.041Z,2.40
2022-10-28T19:59:51.351Z,2.22
2022-10-28T20:02:17.763Z,2.45
2022-10-28T20:04:44.932Z,2.47
2022-10-28T20:07:11.267Z,2.05
2022-10-28T20:09:37.562Z,1.80
2022-10-28T20:12:03.940Z,2.10
2022-10-28T20:14:31.733Z,2.30
2022-10-28T20:17:04.016Z,2.30
2022-10-28T20:19:32.971Z,2.22
2022-10-28T20:21:59.355Z,2.70
2022-10-28T20:24:26.178Z,1.80
2022-10-28T20:26:52.518Z,2.05
2022-10-28T20:29:18.802Z,2.10
2022-10-28T20:31:45.184Z,2.03
2022-10-28T20:34:11.906Z,2.90
2022-10-28T20:36:44.143Z,1.77
2022-10-28T20:39:14.649Z,2.17
2022-10-28T20:41:41.516Z,1.90
2022-10-28T20:44:07.852Z,2.03
2022-10-28T20:46:34.662Z,2.70
2022-10-28T20:49:01.309Z,1.88
2022-10-28T20:51:28.584Z,2.13
2022-10-28T20:53:55.138Z,2.17
2022-10-28T20:56:23.837Z,2.22
2022-10-28T20:58:50.552Z,2.08
2022-10-28T21:01:18.766Z,1.90
2022-10-28T21:03:45.469Z,1.48
2022-10-28T21:08:44.187Z,1.83
2022-10-28T21:11:12.034Z,2.03
2022-10-28T21:13:38.463Z,2.08
2022-10-28T21:16:05.593Z,1.73
2022-10-28T21:18:32.214Z,2.03
2022-10-28T21:20:59.101Z,1.95
2022-10-28T21:23:26.223Z,1.90
2022-10-28T21:25:53.403Z,2.00
2022-10-28T21:28:19.878Z,1.83
2022-10-28T21:30:46.271Z,2.10
2022-10-28T21:33:13.996Z,2.35
2022-10-28T21:35:40.376Z,2.13
2022-10-28T21:38:06.692Z,2.10
2022-10-28T21:40:32.999Z,2.33
2022-10-28T21:42:59.312Z,2.30
2022-10-28T21:45:25.712Z,2.03
2022-10-28T21:47:55.897Z,2.20
2022-10-28T21:50:22.534Z,2.78
2022-10-28T21:52:48.864Z,1.98
2022-10-28T21:55:20.627Z,1.90
2022-10-28T21:58:00.086Z,2.30
2022-10-28T22:00:26.461Z,1.80
2022-10-28T22:02:52.828Z,2.22
2022-10-28T22:05:19.217Z,1.50
2022-10-28T22:07:45.526Z,2.40
2022-10-28T22:10:11.831Z,2.40
2022-10-28T22:12:38.195Z,2.05
2022-10-28T22:15:04.770Z,2.35
2022-10-28T22:17:31.058Z,2.13
2022-10-28T22:19:57.424Z,2.15
2022-10-28T22:22:25.853Z,1.98
2022-10-28T22:24:52.654Z,2.10
2022-10-28T22:27:19.954Z,2.10
2022-10-28T22:29:46.373Z,2.50
2022-10-28T22:32:12.767Z,1.88
2022-10-28T22:34:39.106Z,2.15
2022-10-28T22:37:05.465Z,2.65
2022-10-28T22:39:31.797Z,2.15
2022-10-28T22:41:58.109Z,2.22
2022-10-28T22:44:24.409Z,1.95
2022-10-28T22:46:50.804Z,1.90
2022-10-28T22:49:17.290Z,2.15
2022-10-28T22:51:43.598Z,2.10
2022-10-28T22:54:10.064Z,2.50
2022-10-28T22:56:36.464Z,2.15
2022-10-28T22:59:02.855Z,2.40
2022-10-28T23:01:29.624Z,2.10
2022-10-28T23:03:56.291Z,2.25
2022-10-28T23:06:24.207Z,2.13
2022-10-28T23:08:50.557Z,2.40
2022-10-28T23:11:17.667Z,2.10
2022-10-28T23:13:44.312Z,2.20
2022-10-28T23:16:15.453Z,2.13
2022-10-28T23:18:42.472Z,2.05
2022-10-28T23:21:13.902Z,2.30
2022-10-28T23:23:40.700Z,1.88
2022-10-28T23:26:07.796Z,1.77
2022-10-28T23:28:34.133Z,2.08
2022-10-28T23:31:04.205Z,2.10
2022-10-28T23:33:32.719Z,2.50
2022-10-28T23:35:59.518Z,2.33
2022-10-28T23:38:26.072Z,2.20
2022-10-28T23:40:55.395Z,2.35
2022-10-28T23:43:21.712Z,1.95
2022-10-28T23:45:48.086Z,2.72
2022-10-28T23:48:14.441Z,2.30
2022-10-28T23:50:41.328Z,2.05
2022-10-28T23:53:07.677Z,2.45
2022-10-28T23:55:33.978Z,2.65
2022-10-28T23:58:00.364Z,2.10
